Time;durP1;ratioP1;P1;durP2;ratioP2;P2;SDS_P1;SDS_P2;PMS_P1;PMS_P2;Temp;Humidity;BMP_temperature;BMP_pressure;BME280_temperature;BME280_humidity;BME280_pressure;Samples;Min_cycle;Max_cycle;Signal;HPM_P1;HPM_P2
2023/01/16 00:01:23;;;;;;;1.55;0.80;;;;;;;9.57;57.50;99524.50;6182049;23;20017;-68
2023/01/16 00:03:50;;;;;;;1.05;0.77;;;;;;;9.55;57.26;99529.13;6181947;23;20013;-67
2023/01/16 00:06:17;;;;;;;1.80;1.00;;;;;;;9.54;57.73;99512.22;6155770;23;20093;-68
2023/01/16 00:08:43;;;;;;;1.17;0.90;;;;;;;9.55;57.78;99502.34;6182205;23;20023;-68
2023/01/16 00:11:11;;;;;;;1.92;0.85;;;;;;;9.57;57.52;99498.53;6185789;23;20017;-67
2023/01/16 00:13:38;;;;;;;2.40;0.90;;;;;;;9.57;57.72;99493.19;6188094;23;20088;-67
2023/01/16 00:16:05;;;;;;;3.42;2.00;;;;;;;9.55;57.67;99495.16;6182058;23;20396;-68
2023/01/16 00:18:32;;;;;;;1.63;0.90;;;;;;;9.55;57.55;99486.25;6155814;23;20020;-67
2023/01/16 00:20:59;;;;;;;2.53;1.02;;;;;;;9.54;57.83;99480.03;6182189;23;20088;-67
2023/01/16 00:23:26;;;;;;;1.92;1.10;;;;;;;9.51;57.62;99483.00;6182002;23;20509;-67
2023/01/16 00:25:52;;;;;;;2.47;1.20;;;;;;;9.49;57.79;99473.41;6182088;23;20443;-67
2023/01/16 00:28:19;;;;;;;1.98;1.13;;;;;;;9.47;57.95;99473.53;6182237;23;20017;-67
2023/01/16 00:30:46;;;;;;;3.38;1.25;;;;;;;9.47;58.11;99476.22;6181773;23;20021;-67
2023/01/16 00:33:12;;;;;;;2.30;1.13;;;;;;;9.47;57.88;99475.38;6182126;23;20037;-67
2023/01/16 00:35:39;;;;;;;4.13;1.42;;;;;;;9.46;58.02;99463.78;6181604;23;20380;-67
2023/01/16 00:38:06;;;;;;;2.22;1.35;;;;;;;9.44;57.83;99465.75;6182076;23;20021;-68
2023/01/16 00:40:32;;;;;;;4.40;1.55;;;;;;;9.43;58.05;99466.75;6182007;23;20017;-67
2023/01/16 00:42:59;;;;;;;2.33;1.40;;;;;;;9.41;58.00;99463.34;6181743;23;20013;-68
2023/01/16 00:45:25;;;;;;;3.58;1.30;;;;;;;9.41;58.04;99460.69;6181526;23;20100;-67
2023/01/16 00:47:52;;;;;;;2.35;1.00;;;;;;;9.41;57.92;99452.63;6181817;23;20009;-67
2023/01/16 00:50:19;;;;;;;6.28;1.55;;;;;;;9.42;57.96;99453.47;6181567;23;20042;-68
2023/01/16 00:52:45;;;;;;;4.97;1.75;;;;;;;9.41;58.00;99459.84;6181578;23;20021;-68
2023/01/16 00:55:12;;;;;;;5.72;1.65;;;;;;;9.40;58.14;99453.63;6181798;23;20024;-68
2023/01/16 00:57:38;;;;;;;4.47;1.42;;;;;;;9.43;58.00;99441.78;6181930;23;20435;-68
2023/01/16 01:00:05;;;;;;;2.83;1.50;;;;;;;9.44;57.88;99447.00;6181984;23;20320;-68
2023/01/16 01:02:32;;;;;;;3.15;1.52;;;;;;;9.43;57.85;99431.91;6181665;23;20350;-67
2023/01/16 01:04:59;;;;;;;2.97;1.38;;;;;;;9.42;57.93;99424.00;6181642;23;20013;-67
2023/01/16 01:07:25;;;;;;;3.28;1.30;;;;;;;9.43;57.96;99434.59;6181567;22;20025;-67
2023/01/16 01:09:52;;;;;;;3.35;1.63;;;;;;;9.42;57.69;99424.00;6181038;23;20443;-67
2023/01/16 01:12:18;;;;;;;7.10;1.58;;;;;;;9.39;57.59;99422.44;6180036;23;20530;-67
2023/01/16 01:14:45;;;;;;;3.28;1.48;;;;;;;9.37;57.52;99416.38;6180355;23;20343;-67
2023/01/16 01:17:12;;;;;;;3.58;1.60;;;;;;;9.36;57.68;99413.84;6180437;23;20013;-67
2023/01/16 01:19:38;;;;;;;5.45;1.95;;;;;;;9.34;57.63;99410.44;6180110;23;20013;-67
2023/01/16 01:22:05;;;;;;;4.40;1.50;;;;;;;9.30;57.48;99412.56;6181044;22;20024;-67
2023/01/16 01:24:32;;;;;;;3.08;1.40;;;;;;;9.24;57.52;99403.22;6181685;23;20024;-68
2023/01/16 01:26:58;;;;;;;8.27;1.65;;;;;;;9.23;57.64;99401.53;6181682;23;20100;-68
2023/01/16 01:29:25;;;;;;;2.47;1.55;;;;;;;9.23;57.61;99403.38;6181701;23;20078;-67
2023/01/16 01:31:51;;;;;;;4.75;1.60;;;;;;;9.22;57.46;99396.31;6181433;23;20089;-67
2023/01/16 01:34:18;;;;;;;4.18;1.52;;;;;;;9.19;57.58;99388.53;6181867;23;20017;-66
2023/01/16 01:36:44;;;;;;;3.08;1.38;;;;;;;9.17;57.39;99383.31;6181905;23;20100;-68
2023/01/16 01:39:11;;;;;;;5.97;1.55;;;;;;;9.13;57.46;99375.69;6181875;23;20035;-67
2023/01/16 01:41:38;;;;;;;3.92;1.60;;;;;;;9.03;57.23;99367.63;6181103;23;20024;-68
2023/01/16 01:44:41;;;;;;;7.20;2.35;;;;;;;8.96;57.41;99362.94;6181843;23;20017;-68
2023/01/16 01:47:09;;;;;;;5.30;1.55;;;;;;;8.87;57.29;99356.53;6181550;23;20025;-68
2023/01/16 01:49:37;;;;;;;8.13;1.88;;;;;;;8.79;57.21;99349.19;6182050;23;20017;-68
2023/01/16 01:52:06;;;;;;;4.95;1.58;;;;;;;8.72;57.25;99349.84;6181371;23;20023;-67
2023/01/16 01:54:38;;;;;;;6.47;2.00;;;;;;;8.66;57.35;99347.72;6181734;23;20017;-67
2023/01/16 01:57:19;;;;;;;7.13;1.92;;;;;;;8.59;57.29;99342.91;6181663;23;20040;-68
2023/01/16 01:59:52;;;;;;;6.07;1.73;;;;;;;8.54;57.41;99330.91;6182140;23;20095;-68
2023/01/16 02:02:23;;;;;;;4.95;1.48;;;;;;;8.49;57.50;99325.09;6181505;22;20019;-68
2023/01/16 02:04:56;;;;;;;5.38;3.25;;;;;;;8.42;57.46;99327.47;6181739;23;20009;-68
2023/01/16 02:07:25;;;;;;;6.43;3.92;;;;;;;8.35;57.33;99320.09;6181907;23;20027;-68
2023/01/16 02:10:30;;;;;;;9.20;4.05;;;;;;;8.27;57.44;99305.53;6155557;23;20024;-68
2023/01/16 02:12:58;;;;;;;6.97;2.80;;;;;;;8.26;57.58;99301.16;6181466;23;20017;-68
2023/01/16 02:15:24;;;;;;;9.90;2.28;;;;;;;8.24;57.59;99296.91;6181406;23;20017;-67
2023/01/16 02:21:01;;;;;;;6.07;1.95;;;;;;;8.18;57.61;99284.91;6181871;23;20023;-68
2023/01/16 02:23:51;;;;;;;8.80;2.47;;;;;;;8.19;57.76;99275.91;6181258;23;20092;-68
2023/01/16 02:26:32;;;;;;;4.25;1.65;;;;;;;8.21;57.70;99273.13;6182368;23;20028;-68
2023/01/16 02:29:31;;;;;;;7.53;1.88;;;;;;;8.22;57.64;99267.63;6181647;23;20093;-68
2023/01/16 02:32:32;;;;;;;3.83;1.50;;;;;;;8.17;57.53;99259.13;6181143;23;20451;-68
2023/01/16 02:35:15;;;;;;;6.57;1.63;;;;;;;8.07;57.66;99252.88;6155069;23;20021;-68
2023/01/16 02:37:49;;;;;;;5.75;1.50;;;;;;;7.97;57.33;99246.63;6181003;23;20312;-68
2023/01/16 02:40:58;;;;;;;4.30;1.63;;;;;;;7.91;57.63;99239.13;6181316;23;20041;-68
2023/01/16 02:43:34;;;;;;;7.10;1.98;;;;;;;7.87;57.49;99230.53;6181099;23;20020;-68
2023/01/16 02:46:06;;;;;;;5.72;2.30;;;;;;;7.86;57.70;99222.66;6180938;23;20432;-68
2023/01/16 02:48:57;;;;;;;9.63;3.40;;;;;;;7.84;57.62;99222.78;6181247;23;20458;-67
2023/01/16 02:51:27;;;;;;;6.97;3.33;;;;;;;7.85;57.77;99210.25;6181102;23;20064;-67
2023/01/16 02:54:02;;;;;;;10.63;4.25;;;;;;;7.86;57.78;99202.13;6181736;23;20451;-67
2023/01/16 02:56:41;;;;;;;9.50;3.83;;;;;;;7.90;57.92;99200.88;6155763;23;20013;-67
2023/01/16 02:59:11;;;;;;;5.70;3.92;;;;;;;7.93;57.74;99187.25;6182588;23;20088;-67
2023/01/16 03:01:40;;;;;;;8.38;2.55;;;;;;;7.95;57.86;99184.44;6181951;22;20032;-68
2023/01/16 03:04:41;;;;;;;8.63;2.42;;;;;;;7.92;57.62;99172.19;6182383;23;20092;-67
2023/01/16 03:07:26;;;;;;;7.78;1.40;;;;;;;7.88;57.64;99172.59;6182294;23;20025;-67
2023/01/16 03:09:55;;;;;;;3.00;1.15;;;;;;;7.81;57.63;99160.72;6182203;23;20063;-68
2023/01/16 03:12:43;;;;;;;3.40;1.20;;;;;;;7.71;57.74;99149.13;6182319;23;20021;-68
2023/01/16 03:15:13;;;;;;;4.93;1.52;;;;;;;7.62;57.72;99140.94;6182726;23;20017;-67
2023/01/16 03:18:02;;;;;;;6.95;1.50;;;;;;;7.54;57.64;99143.44;6155835;23;20528;-68
2023/01/16 03:20:34;;;;;;;7.70;1.42;;;;;;;7.49;57.86;99145.63;6182641;23;20013;-67
2023/01/16 03:23:17;;;;;;;7.03;1.00;;;;;;;7.43;57.83;99134.59;6182222;23;20087;-68
2023/01/16 03:25:51;;;;;;;8.32;2.60;;;;;;;7.39;58.02;99127.84;6181703;23;20078;-67
2023/01/16 03:28:24;;;;;;;4.53;1.33;;;;;;;7.33;57.86;99119.38;6182351;23;20013;-67
2023/01/16 03:30:59;;;;;;;7.63;1.38;;;;;;;7.32;57.92;99116.81;6182304;23;20024;-67
2023/01/16 03:33:42;;;;;;;5.10;2.30;;;;;;;7.32;58.20;99106.16;6155998;23;20045;-67
2023/01/16 03:36:24;;;;;;;4.38;1.75;;;;;;;7.34;58.21;99101.53;6155647;23;20024;-67
2023/01/16 03:38:52;;;;;;;10.65;1.70;;;;;;;7.37;58.41;99093.25;6182219;23;20013;-67
2023/01/16 03:41:23;;;;;;;5.15;1.88;;;;;;;7.40;58.58;99087.63;6182147;23;20017;-67
2023/01/16 03:43:57;;;;;;;4.22;1.90;;;;;;;7.44;58.63;99090.94;6181964;23;20028;-67
2023/01/16 03:46:29;;;;;;;7.72;1.98;;;;;;;7.44;58.82;99086.44;6181946;23;20517;-68
2023/01/16 03:49:05;;;;;;;5.20;1.92;;;;;;;7.46;58.87;99080.97;6155908;23;20025;-68
2023/01/16 03:51:40;;;;;;;8.65;2.33;;;;;;;7.48;58.82;99062.97;6182043;23;20466;-67
2023/01/16 03:54:15;;;;;;;5.78;1.80;;;;;;;7.50;58.77;99056.53;6182416;23;20023;-67
2023/01/16 03:56:53;;;;;;;4.45;1.73;;;;;;;7.54;58.79;99036.56;6182437;23;20017;-67
2023/01/16 03:59:20;;;;;;;4.35;1.73;;;;;;;7.58;58.89;99027.31;6182256;23;20090;-67
2023/01/16 04:01:54;;;;;;;8.43;1.85;;;;;;;7.63;59.04;99032.25;6181900;23;20017;-67
2023/01/16 04:04:29;;;;;;;6.85;1.75;;;;;;;7.67;58.93;99027.47;6182140;23;20021;-68
2023/01/16 04:07:05;;;;;;;3.83;1.53;;;;;;;7.71;58.93;99018.22;6182252;23;20029;-68
2023/01/16 04:09:40;;;;;;;3.55;1.70;;;;;;;7.71;58.97;99007.53;6182385;23;20245;-68
2023/01/16 04:12:09;;;;;;;4.68;1.63;;;;;;;7.70;59.00;98998.66;6181918;23;20017;-68
2023/01/16 04:14:37;;;;;;;4.72;1.95;;;;;;;7.70;59.05;98989.81;6155674;22;20021;-67
2023/01/16 04:17:04;;;;;;;8.38;2.00;;;;;;;7.69;59.10;98980.09;6181794;22;20083;-68
2023/01/16 04:19:33;;;;;;;5.28;1.60;;;;;;;7.69;59.18;98972.09;6182128;23;20023;-68
2023/01/16 04:22:05;;;;;;;4.40;2.05;;;;;;;7.70;59.08;98961.25;6181833;23;20017;-67
2023/01/16 04:24:33;;;;;;;5.35;1.75;;;;;;;7.71;59.27;98959.44;6182473;22;20013;-67
2023/01/16 04:27:00;;;;;;;4.45;1.75;;;;;;;7.73;59.28;98944.97;6181595;23;20027;-67
2023/01/16 04:29:26;;;;;;;6.50;1.70;;;;;;;7.76;59.32;98941.16;6182373;23;20021;-67
2023/01/16 04:31:53;;;;;;;5.22;1.95;;;;;;;7.79;59.21;98933.72;6182380;22;20021;-68
2023/01/16 04:34:19;;;;;;;8.98;2.25;;;;;;;7.81;59.20;98931.75;6191608;23;20017;-67
2023/01/16 04:36:46;;;;;;;5.35;1.88;;;;;;;7.82;59.17;98921.91;6182185;23;20024;-67
2023/01/16 04:39:12;;;;;;;6.50;2.20;;;;;;;7.82;59.22;98916.56;6182120;23;20013;-68
2023/01/16 04:41:40;;;;;;;5.65;1.92;;;;;;;7.81;59.18;98905.03;6182155;23;20017;-68
2023/01/16 04:44:09;;;;;;;4.95;2.00;;;;;;;7.81;59.10;98889.00;6182189;23;20041;-68
2023/01/16 04:46:37;;;;;;;5.18;1.90;;;;;;;7.82;59.20;98885.34;6181595;23;20494;-68
2023/01/16 04:49:05;;;;;;;4.65;2.13;;;;;;;7.83;59.33;98873.66;6182342;23;20017;-67
2023/01/16 04:51:32;;;;;;;4.50;1.83;;;;;;;7.83;59.42;98860.31;6181985;23;20021;-67
2023/01/16 04:53:59;;;;;;;4.88;2.08;;;;;;;7.84;59.26;98853.97;6181730;23;20088;-69
2023/01/16 04:56:26;;;;;;;7.97;3.05;;;;;;;7.85;59.22;98846.81;6181756;23;20017;-68
2023/01/16 04:58:53;;;;;;;4.35;1.83;;;;;;;7.86;59.37;98835.13;6181910;23;20088;-67
2023/01/16 05:01:20;;;;;;;9.05;2.10;;;;;;;7.87;59.30;98835.00;6181805;23;20017;-67
2023/01/16 05:03:47;;;;;;;8.63;2.00;;;;;;;7.90;59.50;98825.84;6181594;23;20013;-67
2023/01/16 05:06:14;;;;;;;5.88;1.65;;;;;;;7.92;59.50;98823.88;6181677;23;20021;-68
2023/01/16 05:08:40;;;;;;;8.95;2.15;;;;;;;7.95;59.74;98815.56;6182070;23;20070;-67
2023/01/16 05:11:07;;;;;;;7.07;1.80;;;;;;;7.94;59.42;98804.03;6181636;23;20031;-67
2023/01/16 05:13:34;;;;;;;9.10;1.70;;;;;;;7.96;59.54;98794.03;6181610;23;20017;-67
2023/01/16 05:16:00;;;;;;;5.43;1.75;;;;;;;7.98;59.56;98793.91;6181417;23;20374;-67
2023/01/16 05:18:27;;;;;;;4.30;1.48;;;;;;;8.00;59.40;98775.06;6181923;23;20028;-67
2023/01/16 05:20:53;;;;;;;7.70;2.25;;;;;;;8.02;59.57;98767.72;6181845;23;20411;-67
2023/01/16 05:23:20;;;;;;;2.42;1.35;;;;;;;8.03;59.48;98767.59;6181753;23;20014;-67
2023/01/16 05:25:48;;;;;;;4.35;1.67;;;;;;;8.05;59.76;98754.91;6181541;23;20092;-67
2023/01/16 05:28:14;;;;;;;4.90;1.50;;;;;;;8.08;59.59;98749.28;6182142;23;20336;-68
2023/01/16 05:30:41;;;;;;;6.03;1.83;;;;;;;8.10;59.63;98727.75;6181782;23;20348;-67
2023/01/16 05:33:08;;;;;;;5.30;1.75;;;;;;;8.11;59.61;98724.94;6181463;23;20024;-67
2023/01/16 05:35:34;;;;;;;2.97;1.40;;;;;;;8.13;59.63;98722.13;6181637;23;20021;-67
2023/01/16 05:38:01;;;;;;;6.40;1.63;;;;;;;8.15;59.73;98714.78;6181640;23;20013;-68
2023/01/16 05:40:27;;;;;;;4.47;1.40;;;;;;;8.17;59.66;98708.31;6155354;23;20361;-67
2023/01/16 05:42:54;;;;;;;3.35;1.70;;;;;;;8.19;59.50;98698.34;6181391;23;20013;-68
2023/01/16 05:45:21;;;;;;;7.65;2.20;;;;;;;8.23;59.72;98689.03;6181375;23;20053;-69
2023/01/16 05:47:47;;;;;;;5.35;1.70;;;;;;;8.26;59.89;98679.88;6155510;23;20348;-67
2023/01/16 05:50:14;;;;;;;5.30;1.60;;;;;;;8.27;59.63;98677.06;6181458;23;20447;-68
2023/01/16 05:52:41;;;;;;;5.53;1.58;;;;;;;8.29;59.84;98671.56;6181513;23;20043;-67
2023/01/16 05:55:08;;;;;;;5.07;1.40;;;;;;;8.31;59.78;98663.41;6181801;23;20021;-67
2023/01/16 05:57:34;;;;;;;4.72;1.42;;;;;;;8.32;59.84;98654.38;6181535;23;20021;-67
2023/01/16 06:00:01;;;;;;;3.78;1.40;;;;;;;8.31;59.82;98644.69;6181919;23;20339;-68
2023/01/16 06:02:30;;;;;;;4.55;1.98;;;;;;;8.32;59.72;98628.47;6181075;23;20060;-68
2023/01/16 06:04:56;;;;;;;5.65;1.52;;;;;;;8.33;59.83;98622.16;6155211;23;20024;-68
2023/01/16 06:07:23;;;;;;;7.13;1.73;;;;;;;8.35;59.76;98604.16;6155175;23;20024;-67
2023/01/16 06:09:50;;;;;;;3.90;1.58;;;;;;;8.36;59.85;98592.47;6155397;23;20063;-69
2023/01/16 06:12:18;;;;;;;5.15;1.48;;;;;;;8.38;59.78;98584.28;6181420;23;20096;-69
2023/01/16 06:14:45;;;;;;;5.78;1.40;;;;;;;8.38;59.63;98578.94;6181766;23;20017;-68
2023/01/16 06:17:15;;;;;;;4.03;1.45;;;;;;;8.39;59.66;98575.28;6181767;23;20017;-68
2023/01/16 06:19:46;;;;;;;3.15;1.02;;;;;;;8.40;59.79;98576.94;6181844;23;20017;-67
2023/01/16 06:22:13;;;;;;;2.50;1.30;;;;;;;8.41;59.73;98565.25;6181393;23;20029;-68
2023/01/16 06:24:40;;;;;;;3.15;1.13;;;;;;;8.41;59.70;98559.91;6181489;23;20020;-68
2023/01/16 06:27:07;;;;;;;4.00;1.13;;;;;;;8.42;59.51;98562.44;6181424;23;20120;-68
2023/01/16 06:29:33;;;;;;;3.13;1.30;;;;;;;8.43;59.49;98560.59;6181431;23;20024;-68
2023/01/16 06:32:00;;;;;;;3.20;1.40;;;;;;;8.44;59.56;98562.28;6180924;23;20021;-67
2023/01/16 06:34:27;;;;;;;4.55;1.85;;;;;;;8.45;59.62;98561.28;6181445;23;20371;-67
2023/01/16 06:36:53;;;;;;;5.03;1.10;;;;;;;8.45;59.44;98566.63;6181247;23;20428;-68
2023/01/16 06:39:20;;;;;;;2.75;1.30;;;;;;;8.46;59.73;98557.63;6181365;23;20096;-67
2023/01/16 06:41:46;;;;;;;4.90;1.50;;;;;;;8.46;59.50;98561.13;6180984;23;20092;-68
2023/01/16 06:44:13;;;;;;;3.45;1.55;;;;;;;8.46;59.45;98542.41;6181349;23;20017;-67
2023/01/16 06:46:39;;;;;;;3.03;1.10;;;;;;;8.46;59.63;98539.75;6181177;23;20020;-67
2023/01/16 06:49:10;;;;;;;4.45;1.40;;;;;;;8.47;59.68;98536.06;6181335;23;20018;-66
2023/01/16 06:51:37;;;;;;;4.35;1.70;;;;;;;8.47;59.78;98535.22;6180892;23;20059;-67
2023/01/16 06:54:04;;;;;;;4.97;1.38;;;;;;;8.47;59.81;98521.84;6181004;23;20508;-68
2023/01/16 06:56:30;;;;;;;4.63;1.00;;;;;;;8.46;59.90;98498.78;6181367;23;20017;-67
2023/01/16 06:58:57;;;;;;;3.90;1.40;;;;;;;8.45;59.83;98508.63;6181082;23;20010;-67
2023/01/16 07:01:23;;;;;;;4.93;1.40;;;;;;;8.44;59.93;98501.59;6180749;23;20519;-66
2023/01/16 07:03:50;;;;;;;2.97;1.17;;;;;;;8.45;60.14;98487.25;6180833;23;20017;-66
2023/01/16 07:06:17;;;;;;;3.10;1.40;;;;;;;8.45;60.14;98475.69;6181230;23;20017;-67
2023/01/16 07:08:45;;;;;;;5.90;1.55;;;;;;;8.45;60.05;98465.00;6181375;23;20009;-66
2023/01/16 07:11:12;;;;;;;2.97;1.27;;;;;;;8.44;60.31;98458.81;6181139;23;20380;-67
2023/01/16 07:13:38;;;;;;;2.63;1.10;;;;;;;8.44;60.33;98442.75;6180338;23;20021;-66
2023/01/16 07:24:29;;;;;;;7.78;2.00;;;;;;;8.48;60.59;98376.44;6181193;23;20096;-65
2023/01/16 07:27:02;;;;;;;5.38;2.10;;;;;;;8.48;60.53;98371.06;6181269;23;20025;-66
2023/01/16 07:29:33;;;;;;;3.20;1.20;;;;;;;8.49;60.58;98357.53;6181734;23;20021;-66
2023/01/16 07:32:02;;;;;;;3.38;1.67;;;;;;;8.51;60.78;98358.22;6180785;23;20471;-67
2023/01/16 07:34:28;;;;;;;3.35;1.52;;;;;;;8.54;60.63;98352.56;6180531;23;20060;-66
2023/01/16 07:36:55;;;;;;;4.47;1.33;;;;;;;8.55;60.81;98337.34;6180717;23;20515;-66
2023/01/16 07:39:21;;;;;;;2.67;1.40;;;;;;;8.56;60.81;98339.03;6181364;23;20090;-66
2023/01/16 07:41:50;;;;;;;4.70;1.75;;;;;;;8.57;60.74;98336.19;6181564;23;20028;-66
2023/01/16 07:44:23;;;;;;;4.90;1.50;;;;;;;8.59;60.59;98330.69;6182758;23;20100;-67
2023/01/16 07:46:50;;;;;;;4.97;1.30;;;;;;;8.58;60.97;98323.66;6182262;22;20021;-66
2023/01/16 07:49:16;;;;;;;4.20;1.30;;;;;;;8.58;60.81;98315.63;6182445;23;20013;-67
2023/01/16 07:51:43;;;;;;;5.07;1.08;;;;;;;8.59;60.98;98314.63;6181616;23;20017;-66
2023/01/16 07:54:09;;;;;;;2.42;1.40;;;;;;;8.58;60.94;98307.59;6182076;23;20463;-66
2023/01/16 07:56:36;;;;;;;4.88;1.50;;;;;;;8.59;61.12;98298.59;6182482;23;20066;-68
2023/01/16 07:59:03;;;;;;;4.80;1.75;;;;;;;8.61;61.02;98293.91;6181761;23;20071;-67
2023/01/16 08:01:29;;;;;;;5.05;1.23;;;;;;;8.62;61.22;98287.56;6181675;23;20021;-67
2023/01/16 08:03:56;;;;;;;5.65;1.70;;;;;;;8.64;61.21;98277.53;6181517;22;20021;-68
2023/01/16 08:06:22;;;;;;;2.88;1.30;;;;;;;8.64;61.29;98266.84;6182593;23;20075;-68
2023/01/16 08:08:50;;;;;;;3.55;1.40;;;;;;;8.65;61.28;98257.81;6182224;23;20090;-67
2023/01/16 08:14:06;;;;;;;3.47;1.40;;;;;;;8.66;61.34;98248.78;6181676;22;20013;-67
2023/01/16 08:16:33;;;;;;;4.10;1.65;;;;;;;8.68;61.48;98235.25;6181961;23;20401;-67
2023/01/16 08:19:00;;;;;;;5.30;1.70;;;;;;;8.69;61.52;98228.91;6182033;22;20070;-67
2023/01/16 08:21:26;;;;;;;3.10;1.60;;;;;;;8.69;61.45;98235.09;6155773;23;20024;-67
2023/01/16 08:23:55;;;;;;;4.88;1.70;;;;;;;8.70;61.41;98218.03;6155185;23;20043;-67
2023/01/16 08:26:21;;;;;;;5.10;1.75;;;;;;;8.72;61.58;98213.38;6181633;23;20013;-67
2023/01/16 08:28:48;;;;;;;7.00;1.52;;;;;;;8.72;61.61;98200.00;6181956;23;20380;-67
2023/01/16 08:31:17;;;;;;;6.45;1.50;;;;;;;8.72;61.42;98194.63;6181651;23;20017;-67
2023/01/16 08:33:46;;;;;;;4.47;1.63;;;;;;;8.72;61.52;98191.97;6181349;23;20344;-68
2023/01/16 08:36:15;;;;;;;5.32;1.48;;;;;;;8.75;61.72;98180.09;6181832;23;20014;-67
2023/01/16 08:38:43;;;;;;;4.28;1.42;;;;;;;8.76;61.54;98176.41;6182167;23;20450;-66
2023/01/16 08:51:21;;;;;;;5.35;1.42;;;;;;;8.78;61.52;98175.25;6181645;23;20025;-67
2023/01/16 08:52:13;;;;;;;3.13;1.73;;;;;;;8.76;61.63;98139.78;6181119;23;20092;-68
2023/01/16 08:54:40;;;;;;;3.97;1.58;;;;;;;8.76;61.71;98137.13;6181324;23;20023;-67
2023/01/16 08:57:06;;;;;;;4.75;1.63;;;;;;;8.78;61.72;98132.44;6181586;22;20021;-68
2023/01/16 08:59:33;;;;;;;3.80;1.83;;;;;;;8.80;61.85;98125.09;6181602;23;20088;-67
2023/01/16 09:02:01;;;;;;;4.00;1.73;;;;;;;8.79;61.89;98130.59;6181012;23;20062;-67
2023/01/16 09:04:28;;;;;;;5.30;1.70;;;;;;;8.79;61.96;98117.22;6179503;23;20097;-67
2023/01/16 09:06:55;;;;;;;2.97;1.45;;;;;;;8.81;61.72;98109.88;6179966;23;20017;-67
2023/01/16 09:09:22;;;;;;;3.80;1.33;;;;;;;8.81;61.99;98102.69;6179959;23;20443;-67
2023/01/16 09:14:42;;;;;;;6.57;1.60;;;;;;;8.81;61.98;98101.84;6179399;23;20021;-66
2023/01/16 09:17:08;;;;;;;3.63;1.20;;;;;;;8.80;62.00;98102.84;6179363;22;20029;-67
2023/01/16 09:19:35;;;;;;;4.28;1.40;;;;;;;8.79;62.17;98099.31;6181223;23;20070;-67
2023/01/16 09:22:05;;;;;;;2.15;1.10;;;;;;;8.79;62.12;98104.69;6181266;23;20463;-68
2023/01/16 09:24:33;;;;;;;3.17;1.40;;;;;;;8.78;61.98;98104.84;6155301;23;20013;-67
2023/01/16 09:27:01;;;;;;;2.40;1.10;;;;;;;8.79;62.04;98091.31;6181904;23;20407;-68
2023/01/16 09:29:29;;;;;;;1.27;0.95;;;;;;;8.78;62.00;98103.00;6181553;23;20032;-67
2023/01/16 09:31:56;;;;;;;2.83;1.27;;;;;;;8.77;61.86;98095.16;6130725;23;20017;-67
2023/01/16 09:34:23;;;;;;;3.38;1.38;;;;;;;8.75;61.90;98094.47;6181477;23;20017;-68
2023/01/16 09:36:49;;;;;;;2.75;1.30;;;;;;;8.74;62.02;98106.19;6181681;23;20021;-67
2023/01/16 09:39:16;;;;;;;2.47;1.20;;;;;;;8.73;61.95;98093.81;6181319;23;20040;-68
2023/01/16 09:44:45;;;;;;;2.15;1.10;;;;;;;8.68;62.00;98088.94;6181232;23;20333;-67
2023/01/16 09:47:11;;;;;;;2.63;1.25;;;;;;;8.68;61.87;98085.44;6181740;23;20039;-66
2023/01/16 09:49:55;;;;;;;1.05;0.85;;;;;;;8.66;62.01;98079.41;6181654;23;20017;-67
2023/01/16 10:01:07;;;;;;;1.58;0.80;;;;;;;8.67;62.06;98065.88;6181718;23;20017;-67
2023/01/16 10:03:41;;;;;;;1.90;1.08;;;;;;;8.66;62.07;98063.34;6180791;23;20017;-67
2023/01/16 10:06:26;;;;;;;2.65;1.00;;;;;;;8.66;62.21;98056.16;6181357;23;20043;-67
2023/01/16 10:09:07;;;;;;;1.40;0.70;;;;;;;8.66;62.17;98048.13;6130846;23;20027;-67
2023/01/16 10:11:53;;;;;;;1.95;0.80;;;;;;;8.68;62.07;98050.66;6181251;23;20323;-67
2023/01/16 10:14:54;;;;;;;3.22;1.10;;;;;;;8.69;62.29;98039.78;6181217;23;20139;-67
2023/01/16 10:17:33;;;;;;;2.33;1.00;;;;;;;8.70;62.02;98036.09;6181453;23;20021;-67
2023/01/16 10:20:02;;;;;;;1.63;0.93;;;;;;;8.72;62.31;98033.25;6181765;23;20108;-67
2023/01/16 10:22:46;;;;;;;2.13;0.90;;;;;;;8.74;62.19;98025.91;6181396;23;20017;-68
2023/01/16 10:25:26;;;;;;;3.05;0.90;;;;;;;8.76;62.27;98022.06;6154697;23;20528;-68
2023/01/16 10:28:30;;;;;;;1.40;1.00;;;;;;;8.78;62.44;98013.88;6181250;23;20478;-67
2023/01/16 10:31:08;;;;;;;3.60;1.10;;;;;;;8.80;62.38;98007.34;6155274;23;20448;-67
2023/01/16 10:33:59;;;;;;;1.40;0.98;;;;;;;8.83;62.42;98000.81;6181169;23;20390;-68
2023/01/16 10:36:31;;;;;;;1.58;0.90;;;;;;;8.85;62.40;97996.13;6180933;23;20088;-68
2023/01/16 10:38:59;;;;;;;2.20;0.98;;;;;;;8.87;62.36;97994.97;6181282;23;20017;-68
2023/01/16 10:50:10;;;;;;;1.45;1.00;;;;;;;8.99;62.50;97978.59;6181120;23;20444;-67
2023/01/16 10:52:38;;;;;;;2.17;1.10;;;;;;;9.02;62.47;97965.72;6180600;23;20037;-67
2023/01/16 10:55:06;;;;;;;1.55;1.13;;;;;;;9.04;62.46;97958.34;6180757;23;20444;-68
2023/01/16 10:57:33;;;;;;;3.65;2.22;;;;;;;9.10;62.33;97954.16;6181371;22;20021;-69
2023/01/16 11:00:05;;;;;;;1.20;1.00;;;;;;;9.11;62.42;97947.78;6181409;23;20028;-67
2023/01/16 11:02:42;;;;;;;2.22;1.08;;;;;;;9.14;62.44;97948.28;6180659;23;20017;-67
2023/01/16 11:05:26;;;;;;;1.63;1.10;;;;;;;9.17;62.36;97934.56;6180652;23;20100;-68
2023/01/16 11:07:53;;;;;;;2.45;0.88;;;;;;;9.21;62.35;97932.38;6180703;23;20021;-68
2023/01/16 11:10:22;;;;;;;1.33;1.02;;;;;;;9.23;62.27;97927.69;6181326;23;20021;-68
2023/01/16 11:18:32;;;;;;;2.55;1.00;;;;;;;9.31;62.14;97898.19;6182495;23;20013;-67
2023/01/16 11:21:13;;;;;;;1.70;0.90;;;;;;;9.31;62.07;97894.69;6182314;23;20021;-68
2023/01/16 11:23:43;;;;;;;1.92;1.02;;;;;;;9.33;62.11;97895.34;6181805;23;20017;-67
2023/01/16 11:26:11;;;;;;;1.40;0.90;;;;;;;9.32;62.11;97883.81;6182188;22;20505;-67
2023/01/16 11:28:38;;;;;;;1.83;0.95;;;;;;;9.33;62.16;97880.13;6182108;23;20501;-68
2023/01/16 11:31:14;;;;;;;2.47;1.10;;;;;;;9.35;61.74;97871.91;6182297;23;20023;-67
2023/01/16 11:33:47;;;;;;;2.15;1.10;;;;;;;9.34;61.79;97873.75;6182041;23;20048;-68
2023/01/16 11:36:17;;;;;;;2.08;1.15;;;;;;;9.36;61.66;97862.88;6182164;23;20052;-68
2023/01/16 11:38:46;;;;;;;1.40;1.00;;;;;;;9.36;61.76;97852.97;6182673;23;20013;-69
2023/01/16 11:41:17;;;;;;;4.00;1.13;;;;;;;9.36;61.55;97855.66;6182307;23;20062;-68
2023/01/16 11:46:49;;;;;;;1.27;0.90;;;;;;;9.43;61.48;97837.03;6182125;23;20018;-68
2023/01/16 11:49:26;;;;;;;1.25;0.90;;;;;;;9.45;61.74;97833.19;6182286;22;20066;-68
2023/01/16 11:51:54;;;;;;;1.38;0.95;;;;;;;9.49;61.86;97828.31;6181884;23;20027;-67
2023/01/16 11:54:28;;;;;;;1.10;0.90;;;;;;;9.49;61.49;97826.47;6182096;23;20017;-68
2023/01/16 11:57:13;;;;;;;2.15;0.88;;;;;;;9.51;61.70;97815.56;6182152;23;20074;-68
2023/01/16 11:59:58;;;;;;;2.03;0.90;;;;;;;9.54;61.45;97813.38;6182146;23;20114;-68
2023/01/16 12:03:26;;;;;;;1.48;0.98;;;;;;;9.56;61.64;97808.69;6190006;23;20040;-67
2023/01/16 12:06:06;;;;;;;1.77;0.88;;;;;;;9.61;61.53;97797.44;6062581;23;20023;-68
2023/01/16 12:08:46;;;;;;;0.93;0.70;;;;;;;9.64;61.37;97793.56;6169190;23;20451;-67
2023/01/16 12:11:15;;;;;;;1.98;1.08;;;;;;;9.66;61.34;97783.50;6182333;23;20021;-68
2023/01/16 12:17:06;;;;;;;1.45;0.90;;;;;;;9.68;61.35;97774.31;6181744;23;20043;-68
2023/01/16 12:20:10;;;;;;;0.95;0.68;;;;;;;9.69;61.00;97767.09;6182119;23;20339;-68
2023/01/16 12:22:55;;;;;;;1.98;0.80;;;;;;;9.70;61.02;97766.09;6182156;23;20021;-68
2023/01/16 12:25:41;;;;;;;1.17;0.80;;;;;;;9.70;61.03;97761.56;6181921;23;20016;-68
2023/01/16 12:28:13;;;;;;;1.60;0.70;;;;;;;9.72;61.24;97751.50;6181813;23;20019;-68
2023/01/16 12:31:07;;;;;;;1.50;0.80;;;;;;;9.75;61.04;97753.81;6181510;23;20043;-68
2023/01/16 12:33:54;;;;;;;1.42;0.68;;;;;;;9.78;61.16;97739.22;6181541;23;20408;-68
2023/01/16 12:36:36;;;;;;;1.38;0.70;;;;;;;9.80;60.79;97739.88;6181703;23;20040;-68
2023/01/16 12:39:31;;;;;;;1.10;0.68;;;;;;;9.81;61.09;97737.03;6181970;23;20017;-68
2023/01/16 12:45:36;;;;;;;0.60;0.50;;;;;;;9.87;60.95;97719.38;6182118;23;20095;-68
2023/01/16 12:48:12;;;;;;;1.08;0.68;;;;;;;9.90;61.02;97716.34;6181816;23;20120;-67
2023/01/16 12:50:52;;;;;;;;;;;;;;;9.90;60.72;97705.63;6156070;23;20021;-68
2023/01/16 12:53:52;;;;;;;1.00;0.70;;;;;;;9.95;60.77;97702.38;6181379;23;19935;-68
2023/01/16 12:56:21;;;;;;;0.70;0.55;;;;;;;9.93;60.70;97699.91;6108064;23;20024;-68
2023/01/16 12:58:54;;;;;;;1.55;0.60;;;;;;;9.91;60.51;97701.09;6181677;23;20017;-68
2023/01/16 13:01:36;;;;;;;2.70;1.00;;;;;;;9.91;60.49;97698.41;6181857;23;20329;-68
2023/01/16 13:04:20;;;;;;;1.52;0.70;;;;;;;9.92;60.59;97689.34;6181667;23;20037;-68